Time;durP1;ratioP1;P1;durP2;ratioP2;P2;SDS_P1;SDS_P2;PMS_P1;PMS_P2;Temp;Humidity;BMP_temperature;BMP_pressure;BME280_temperature;BME280_humidity;BME280_pressure;Samples;Min_cycle;Max_cycle;Signal;HPM_P1;HPM_P2
2022/12/20 00:01:26;;;;;;;82.50;34.20;;;7.50;97.50;;;;;;5034832;28;20186;-65
2022/12/20 00:03:55;;;;;;;72.17;32.37;;;7.50;97.20;;;;;;5034811;28;20212;-66
2022/12/20 00:06:23;;;;;;;82.63;34.43;;;7.50;97.20;;;;;;5035300;28;20195;-65
2022/12/20 00:08:56;;;;;;;77.10;31.87;;;7.50;97.20;;;;;;5036328;28;20210;-66
2022/12/20 00:11:24;;;;;;;74.27;32.37;;;7.50;97.20;;;;;;5041485;28;20319;-66
2022/12/20 00:13:51;;;;;;;82.67;33.23;;;7.50;97.10;;;;;;5034934;28;20211;-66
2022/12/20 00:16:28;;;;;;;76.73;33.63;;;7.50;97.20;;;;;;5035205;28;20214;-65
2022/12/20 00:18:58;;;;;;;73.50;31.87;;;7.50;97.20;;;;;;5032995;28;20218;-66
2022/12/20 00:21:27;;;;;;;77.70;33.47;;;7.50;97.20;;;;;;5036496;28;20257;-66
2022/12/20 00:23:54;;;;;;;73.73;31.73;;;7.50;97.20;;;;;;5037113;28;20206;-66
2022/12/20 00:26:24;;;;;;;90.77;33.83;;;7.40;97.20;;;;;;5033762;28;20216;-65
2022/12/20 00:28:52;;;;;;;88.17;35.70;;;7.40;97.50;;;;;;5033287;28;20724;-65
2022/12/20 00:31:21;;;;;;;79.53;32.17;;;7.50;97.30;;;;;;5041902;28;20298;-66
2022/12/20 00:33:50;;;;;;;68.60;31.97;;;7.50;97.20;;;;;;5037213;28;20222;-65
2022/12/20 00:36:18;;;;;;;79.43;33.73;;;7.50;97.20;;;;;;5040429;28;20196;-65
2022/12/20 00:38:50;;;;;;;81.03;35.90;;;7.50;97.20;;;;;;5026154;28;20222;-65
2022/12/20 00:41:23;;;;;;;82.73;34.87;;;7.50;97.10;;;;;;5043777;28;20234;-65
2022/12/20 00:43:51;;;;;;;80.90;36.40;;;7.50;97.10;;;;;;5035454;28;20210;-65
2022/12/20 00:46:19;;;;;;;78.10;35.37;;;7.50;97.10;;;;;;5023619;28;20675;-65
2022/12/20 00:48:46;;;;;;;80.20;34.07;;;7.50;97.10;;;;;;5027430;28;20203;-65
2022/12/20 00:51:21;;;;;;;85.93;36.10;;;7.50;97.10;;;;;;5051089;28;20220;-65
2022/12/20 00:53:49;;;;;;;81.13;33.87;;;7.50;97.10;;;;;;5040475;28;20210;-65
2022/12/20 00:56:16;;;;;;;80.87;34.27;;;7.50;97.10;;;;;;5035263;28;20207;-66
2022/12/20 00:58:44;;;;;;;85.20;35.17;;;7.50;97.30;;;;;;5038068;28;20241;-66
2022/12/20 01:01:18;;;;;;;82.90;34.53;;;7.50;97.10;;;;;;5020009;28;20198;-65
2022/12/20 01:03:47;;;;;;;92.00;34.73;;;7.50;97.10;;;;;;5038232;28;20207;-65
2022/12/20 01:06:15;;;;;;;89.53;35.90;;;7.50;97.10;;;;;;5037880;28;20236;-66
2022/12/20 01:08:42;;;;;;;92.10;35.27;;;7.50;97.20;;;;;;5023435;28;20221;-65
2022/12/20 01:11:23;;;;;;;84.47;35.97;;;7.50;97.20;;;;;;5038059;28;20243;-65
2022/12/20 01:13:54;;;;;;;82.13;35.93;;;7.50;97.20;;;;;;5031042;28;20306;-65
2022/12/20 01:16:25;;;;;;;83.60;33.97;;;7.50;97.10;;;;;;5036425;28;20225;-65
2022/12/20 01:18:53;;;;;;;83.40;35.40;;;7.40;97.10;;;;;;5047665;28;20191;-65
2022/12/20 01:21:22;;;;;;;81.90;33.93;;;7.40;97.10;;;;;;5040056;28;20200;-66
2022/12/20 01:23:50;;;;;;;88.43;37.43;;;7.40;97.10;;;;;;5032891;28;20652;-65
2022/12/20 01:26:21;;;;;;;86.17;38.57;;;7.40;97.10;;;;;;5035128;28;20211;-66
2022/12/20 01:28:52;;;;;;;83.07;35.70;;;7.50;97.10;;;;;;5031084;28;20673;-66
2022/12/20 01:31:20;;;;;;;82.00;36.13;;;7.50;97.10;;;;;;5031136;28;20200;-66
2022/12/20 01:33:48;;;;;;;75.93;33.53;;;7.50;97.00;;;;;;5029774;28;20298;-66
2022/12/20 01:36:28;;;;;;;82.63;37.53;;;7.50;97.00;;;;;;5034076;28;20601;-66
2022/12/20 01:39:19;;;;;;;78.50;35.03;;;7.50;97.00;;;;;;5030254;28;20263;-65
2022/12/20 01:41:47;;;;;;;76.53;33.37;;;7.40;96.90;;;;;;5039011;28;20540;-66
2022/12/20 01:44:17;;;;;;;66.40;31.70;;;7.40;96.90;;;;;;5032596;28;20228;-65
2022/12/20 01:46:46;;;;;;;85.00;35.10;;;7.40;97.00;;;;;;5035870;28;20254;-66
2022/12/20 01:49:41;;;;;;;71.80;31.30;;;7.40;97.00;;;;;;5047294;28;20211;-66
2022/12/20 01:52:19;;;;;;;67.27;30.30;;;7.40;97.00;;;;;;5038889;28;20211;-65
2022/12/20 01:55:00;;;;;;;72.67;31.70;;;7.40;97.00;;;;;;5035712;28;20572;-65
2022/12/20 01:57:35;;;;;;;75.80;32.70;;;7.50;97.00;;;;;;5052474;28;20208;-66
2022/12/20 02:00:03;;;;;;;79.90;34.83;;;7.40;97.00;;;;;;5066216;28;20207;-65
2022/12/20 02:02:41;;;;;;;80.73;33.43;;;7.40;97.00;;;;;;5035290;28;20268;-65
2022/12/20 02:05:09;;;;;;;75.30;33.57;;;7.40;97.00;;;;;;5037838;28;20198;-65
2022/12/20 02:07:37;;;;;;;79.23;34.40;;;7.40;97.30;;;;;;5036210;28;20239;-66
2022/12/20 02:10:06;;;;;;;83.27;34.43;;;7.40;97.10;;;;;;5037323;28;20217;-66
2022/12/20 02:12:42;;;;;;;76.47;34.67;;;7.40;97.10;;;;;;5026341;28;20238;-65
2022/12/20 02:15:31;;;;;;;75.03;31.43;;;7.40;97.10;;;;;;5034307;28;20652;-65
2022/12/20 02:18:24;;;;;;;79.63;33.00;;;7.40;97.10;;;;;;5032571;28;20196;-65
2022/12/20 02:21:17;;;;;;;77.67;31.90;;;7.50;97.10;;;;;;5035065;28;20227;-65
2022/12/20 02:24:02;;;;;;;73.63;32.17;;;7.50;97.00;;;;;;5034767;28;20856;-65
2022/12/20 02:27:10;;;;;;;76.23;31.87;;;7.40;97.00;;;;;;5048401;28;20295;-66
2022/12/20 02:30:04;;;;;;;76.47;30.80;;;7.40;97.10;;;;;;5046488;28;20211;-65
2022/12/20 02:32:53;;;;;;;75.93;32.37;;;7.40;97.10;;;;;;5046412;28;20207;-66
2022/12/20 02:35:23;;;;;;;73.53;32.67;;;7.40;97.10;;;;;;5034144;28;20277;-65
2022/12/20 02:37:57;;;;;;;79.50;33.27;;;7.40;97.10;;;;;;5033643;28;20205;-66
2022/12/20 02:40:29;;;;;;;70.10;32.47;;;7.40;97.20;;;;;;5036594;28;20611;-66
2022/12/20 02:42:59;;;;;;;87.03;36.93;;;7.40;97.20;;;;;;5037326;28;20206;-66
2022/12/20 02:45:32;;;;;;;75.77;32.87;;;7.40;97.30;;;;;;5035852;28;20546;-65
2022/12/20 02:48:04;;;;;;;73.40;32.33;;;7.40;97.30;;;;;;5028168;28;20215;-66
2022/12/20 02:50:42;;;;;;;69.57;31.43;;;7.40;97.40;;;;;;5045221;28;20207;-66
2022/12/20 02:53:09;;;;;;;71.57;32.77;;;7.40;97.30;;;;;;5036875;28;20217;-65
2022/12/20 02:55:59;;;;;;;77.23;34.63;;;7.40;97.40;;;;;;5034714;28;20230;-66
2022/12/20 02:58:42;;;;;;;84.23;36.47;;;7.40;97.40;;;;;;5034149;28;20199;-65
2022/12/20 03:01:35;;;;;;;77.10;34.43;;;7.40;97.60;;;;;;5034479;28;20218;-66
2022/12/20 03:04:03;;;;;;;89.33;36.07;;;7.40;97.40;;;;;;5034079;28;20207;-66
2022/12/20 03:06:30;;;;;;;82.63;35.10;;;7.40;97.40;;;;;;5034694;28;20209;-66
2022/12/20 03:08:57;;;;;;;72.47;34.83;;;7.40;97.40;;;;;;5035901;28;20636;-66
2022/12/20 03:11:27;;;;;;;83.17;35.63;;;7.40;97.40;;;;;;5035918;28;20239;-65
2022/12/20 03:13:55;;;;;;;85.70;37.57;;;7.50;97.40;;;;;;5021989;28;20648;-66
2022/12/20 03:16:22;;;;;;;87.43;37.10;;;7.50;97.40;;;;;;5035336;28;20238;-66
2022/12/20 03:18:49;;;;;;;76.37;33.57;;;7.50;97.40;;;;;;5043065;28;20211;-66
2022/12/20 03:21:16;;;;;;;73.93;34.10;;;7.50;97.30;;;;;;5034804;28;20741;-66
2022/12/20 03:23:43;;;;;;;77.13;34.40;;;7.50;97.30;;;;;;5036714;28;20206;-65
2022/12/20 03:26:10;;;;;;;78.83;34.27;;;7.50;97.30;;;;;;5024282;28;20206;-66
2022/12/20 03:28:42;;;;;;;84.10;37.87;;;7.50;97.30;;;;;;5034723;28;20210;-65
2022/12/20 03:31:13;;;;;;;80.37;34.73;;;7.50;97.30;;;;;;5035908;28;20199;-66
2022/12/20 03:33:48;;;;;;;93.73;36.00;;;7.50;97.30;;;;;;5036790;28;20273;-65
2022/12/20 03:36:15;;;;;;;84.87;35.33;;;7.50;97.30;;;;;;5035348;28;20265;-66
2022/12/20 03:38:43;;;;;;;88.97;37.30;;;7.50;97.30;;;;;;5035607;28;20549;-66
2022/12/20 03:41:10;;;;;;;78.10;34.73;;;7.50;97.30;;;;;;5040202;28;20209;-65
2022/12/20 03:43:37;;;;;;;83.23;34.80;;;7.50;97.30;;;;;;5031671;28;20217;-65
2022/12/20 03:46:04;;;;;;;74.30;34.07;;;7.50;97.30;;;;;;5035350;28;20207;-65
2022/12/20 03:48:36;;;;;;;78.67;33.73;;;7.50;97.30;;;;;;5033432;28;20216;-66
2022/12/20 03:51:04;;;;;;;75.33;35.03;;;7.50;97.20;;;;;;5035465;28;20203;-65
2022/12/20 03:53:32;;;;;;;75.30;34.73;;;7.50;97.10;;;;;;5038076;28;20191;-66
2022/12/20 03:55:59;;;;;;;77.80;35.10;;;7.50;97.20;;;;;;5035439;28;20203;-65
2022/12/20 03:58:26;;;;;;;88.63;36.77;;;7.50;97.10;;;;;;5032476;28;20283;-65
2022/12/20 04:00:55;;;;;;;79.67;34.70;;;7.50;97.10;;;;;;5032771;28;20195;-66
2022/12/20 04:03:48;;;;;;;83.47;34.97;;;7.50;97.10;;;;;;5035874;28;20231;-65
2022/12/20 04:06:16;;;;;;;86.90;36.07;;;7.50;97.10;;;;;;5033801;28;20213;-65
2022/12/20 04:08:44;;;;;;;85.63;36.60;;;7.50;97.00;;;;;;5032651;28;20290;-65
2022/12/20 04:11:17;;;;;;;83.83;36.53;;;7.50;97.10;;;;;;5035546;28;20292;-65
2022/12/20 04:13:54;;;;;;;82.30;35.57;;;7.50;97.10;;;;;;5030149;28;20230;-65
2022/12/20 04:16:25;;;;;;;73.40;34.17;;;7.50;97.20;;;;;;5030400;28;20227;-66
2022/12/20 04:18:54;;;;;;;75.73;34.83;;;7.50;97.10;;;;;;5034663;28;20231;-65
2022/12/20 04:21:33;;;;;;;77.63;35.77;;;7.50;97.10;;;;;;5032310;28;20205;-66
2022/12/20 04:24:01;;;;;;;79.37;35.87;;;7.50;97.10;;;;;;5033773;28;20209;-65
2022/12/20 04:26:42;;;;;;;79.60;36.17;;;7.50;97.10;;;;;;5033452;28;20269;-65
2022/12/20 04:29:10;;;;;;;82.17;35.90;;;7.50;97.10;;;;;;5034546;28;20252;-66
2022/12/20 04:31:39;;;;;;;77.00;36.07;;;7.50;97.10;;;;;;5019007;28;20269;-66
2022/12/20 04:34:06;;;;;;;91.17;36.20;;;7.50;97.10;;;;;;5036477;28;20215;-66
2022/12/20 04:36:34;;;;;;;84.67;37.90;;;7.50;97.10;;;;;;5033611;28;20264;-65
2022/12/20 04:39:04;;;;;;;87.87;35.83;;;7.50;97.10;;;;;;5038423;28;20520;-66
2022/12/20 04:41:42;;;;;;;76.53;36.27;;;7.50;97.10;;;;;;5030180;28;20636;-65
2022/12/20 04:44:12;;;;;;;71.43;34.87;;;7.50;97.10;;;;;;5033310;28;20212;-65
2022/12/20 04:46:39;;;;;;;75.30;32.87;;;7.50;97.10;;;;;;5034212;28;20209;-66
2022/12/20 04:49:11;;;;;;;78.77;35.07;;;7.50;97.10;;;;;;5031435;28;20229;-65
2022/12/20 04:51:41;;;;;;;81.87;34.63;;;7.50;97.10;;;;;;5034920;28;20626;-66
2022/12/20 04:54:10;;;;;;;79.77;34.00;;;7.50;97.10;;;;;;5049014;28;20232;-66
2022/12/20 04:56:45;;;;;;;78.67;33.73;;;7.50;97.10;;;;;;5031113;28;20705;-66
2022/12/20 04:59:18;;;;;;;82.47;34.43;;;7.50;97.10;;;;;;5037547;28;20641;-65
2022/12/20 05:01:48;;;;;;;82.07;34.90;;;7.50;97.20;;;;;;5033860;28;20217;-66
2022/12/20 05:04:28;;;;;;;67.90;33.03;;;7.50;97.10;;;;;;5035285;28;20215;-66
2022/12/20 05:07:03;;;;;;;74.57;32.83;;;7.50;97.10;;;;;;5017273;28;20230;-65
2022/12/20 05:09:31;;;;;;;76.80;35.63;;;7.50;97.10;;;;;;5035613;28;20211;-66
2022/12/20 05:11:58;;;;;;;80.13;35.37;;;7.50;97.10;;;;;;5013955;28;20244;-65
2022/12/20 05:14:26;;;;;;;85.50;34.37;;;7.50;97.10;;;;;;5033978;28;20219;-66
2022/12/20 05:16:53;;;;;;;83.47;38.17;;;7.50;97.10;;;;;;5031307;28;20207;-65
2022/12/20 05:19:20;;;;;;;80.37;35.10;;;7.50;97.10;;;;;;5032901;28;20302;-66
2022/12/20 05:27:30;;;;;;;85.20;34.50;;;7.50;97.00;;;;;;5049795;28;20684;-65
2022/12/20 05:29:58;;;;;;;77.93;34.77;;;7.50;97.10;;;;;;5036891;28;20297;-65
2022/12/20 05:32:27;;;;;;;77.80;31.43;;;7.50;97.10;;;;;;5036551;28;20255;-66
2022/12/20 05:34:54;;;;;;;74.20;32.70;;;7.50;97.10;;;;;;5037442;28;20567;-65
2022/12/20 05:37:21;;;;;;;80.30;36.77;;;7.50;97.10;;;;;;5036590;28;20195;-65
2022/12/20 05:39:49;;;;;;;77.63;35.70;;;7.50;97.10;;;;;;5034910;28;20207;-65
2022/12/20 05:42:20;;;;;;;87.80;33.03;;;7.50;97.10;;;;;;5035920;28;20583;-65
2022/12/20 05:44:50;;;;;;;67.93;31.53;;;7.50;97.00;;;;;;5024472;28;20200;-65
2022/12/20 05:47:19;;;;;;;77.53;34.57;;;7.50;97.10;;;;;;5050416;28;20556;-65
2022/12/20 05:49:51;;;;;;;87.30;38.70;;;7.50;97.10;;;;;;5038661;28;20211;-66
2022/12/20 05:52:19;;;;;;;75.47;33.17;;;7.50;97.10;;;;;;5020635;28;20204;-65
2022/12/20 05:54:46;;;;;;;63.37;31.07;;;7.50;97.10;;;;;;5036738;28;20222;-66
2022/12/20 05:57:16;;;;;;;75.97;34.53;;;7.50;97.00;;;;;;5034729;28;20256;-66
2022/12/20 05:59:45;;;;;;;75.33;33.80;;;7.50;97.00;;;;;;5033369;28;20218;-65
2022/12/20 06:02:15;;;;;;;79.53;31.93;;;7.50;97.00;;;;;;5038948;28;20184;-66
2022/12/20 06:04:44;;;;;;;69.60;32.73;;;7.50;97.00;;;;;;5035735;28;20207;-66
2022/12/20 06:07:15;;;;;;;70.53;29.83;;;7.50;97.10;;;;;;5041747;28;20207;-65
2022/12/20 06:09:46;;;;;;;75.87;35.17;;;7.50;97.10;;;;;;5038680;28;20246;-65
2022/12/20 06:12:16;;;;;;;70.20;31.90;;;7.50;97.10;;;;;;5035991;28;20586;-65
2022/12/20 06:14:45;;;;;;;72.07;33.20;;;7.60;97.10;;;;;;5046238;28;20247;-66
2022/12/20 06:17:12;;;;;;;62.90;31.07;;;7.60;97.10;;;;;;5038511;28;20290;-66
2022/12/20 06:19:42;;;;;;;68.87;33.73;;;7.50;97.00;;;;;;5038702;28;20651;-65
2022/12/20 06:22:12;;;;;;;79.37;34.30;;;7.50;97.10;;;;;;5036508;28;20238;-65
2022/12/20 06:24:42;;;;;;;85.57;34.73;;;7.50;97.10;;;;;;5036114;28;20207;-65
2022/12/20 06:27:17;;;;;;;82.37;35.13;;;7.50;97.10;;;;;;5047988;28;20235;-65
2022/12/20 06:29:53;;;;;;;78.67;34.50;;;7.50;97.20;;;;;;5026577;28;20219;-65
2022/12/20 06:32:23;;;;;;;77.17;34.43;;;7.50;97.20;;;;;;5034395;28;20296;-66
2022/12/20 06:34:51;;;;;;;68.90;32.50;;;7.50;97.20;;;;;;5036618;28;20250;-65
2022/12/20 06:37:18;;;;;;;68.67;33.47;;;7.60;97.20;;;;;;5034108;28;20199;-65
2022/12/20 06:39:45;;;;;;;73.47;33.13;;;7.50;97.20;;;;;;5038399;28;20691;-65
2022/12/20 06:42:13;;;;;;;77.73;34.37;;;7.50;97.20;;;;;;5051437;28;20200;-65
2022/12/20 06:44:42;;;;;;;80.77;35.10;;;7.60;97.20;;;;;;5052080;28;20223;-65
2022/12/20 06:47:09;;;;;;;83.33;36.53;;;7.60;97.20;;;;;;5031999;28;20212;-66
2022/12/20 06:49:37;;;;;;;71.10;32.77;;;7.60;97.10;;;;;;5048937;28;20213;-65
2022/12/20 06:52:11;;;;;;;81.73;35.30;;;7.60;97.10;;;;;;5033704;28;20200;-65
2022/12/20 06:54:44;;;;;;;69.90;32.70;;;7.60;97.20;;;;;;5036314;28;20222;-65
2022/12/20 06:57:12;;;;;;;71.10;34.40;;;7.60;97.10;;;;;;5023222;28;20705;-66
2022/12/20 06:59:42;;;;;;;67.93;31.03;;;7.50;97.10;;;;;;5033286;28;20199;-66
2022/12/20 07:02:10;;;;;;;71.90;32.77;;;7.50;97.10;;;;;;5037641;28;20210;-66
2022/12/20 07:04:38;;;;;;;71.33;33.47;;;7.50;97.20;;;;;;5036548;28;20209;-65
2022/12/20 07:07:05;;;;;;;78.87;33.60;;;7.60;97.20;;;;;;5035886;28;20590;-65
2022/12/20 07:09:33;;;;;;;74.83;34.40;;;7.60;97.20;;;;;;5041784;28;20206;-65
2022/12/20 07:12:00;;;;;;;74.17;34.03;;;7.50;97.20;;;;;;5031683;28;20246;-66
2022/12/20 07:14:27;;;;;;;76.80;32.97;;;7.60;97.20;;;;;;5033963;28;20616;-65
2022/12/20 07:16:54;;;;;;;75.13;35.90;;;7.60;97.20;;;;;;5034849;28;20223;-65
2022/12/20 07:19:21;;;;;;;78.80;34.30;;;7.60;97.20;;;;;;5035714;28;20203;-65
2022/12/20 07:21:48;;;;;;;82.93;34.50;;;7.60;97.50;;;;;;5034970;28;20208;-65
2022/12/20 07:24:15;;;;;;;71.60;32.90;;;7.60;97.20;;;;;;5033160;28;20207;-65
2022/12/20 07:26:45;;;;;;;79.20;32.47;;;7.60;97.20;;;;;;5033636;28;20203;-65
2022/12/20 07:29:12;;;;;;;81.63;34.83;;;7.60;97.20;;;;;;5035388;28;20640;-65
2022/12/20 07:31:42;;;;;;;75.57;33.33;;;7.60;97.30;;;;;;5036840;28;20522;-65
2022/12/20 07:34:09;;;;;;;80.10;34.77;;;7.60;97.30;;;;;;5035216;28;20221;-65
2022/12/20 07:36:37;;;;;;;71.93;35.17;;;7.70;97.30;;;;;;5034945;28;20238;-65
2022/12/20 07:39:04;;;;;;;90.10;36.00;;;7.70;97.30;;;;;;5040726;28;20191;-65
2022/12/20 07:41:31;;;;;;;96.07;37.37;;;7.70;97.30;;;;;;5034453;28;20195;-65
2022/12/20 07:43:58;;;;;;;82.17;39.43;;;7.70;97.30;;;;;;5035022;28;20213;-65
2022/12/20 07:46:26;;;;;;;93.03;38.93;;;7.70;97.30;;;;;;5032695;28;20231;-65
2022/12/20 07:48:54;;;;;;;86.40;37.37;;;7.80;97.30;;;;;;5035197;28;20282;-65
2022/12/20 07:51:26;;;;;;;86.33;38.07;;;7.80;97.30;;;;;;5038524;28;20211;-65
2022/12/20 07:54:03;;;;;;;81.90;37.20;;;7.80;97.30;;;;;;5036449;28;20202;-65
2022/12/20 07:56:33;;;;;;;84.90;37.30;;;7.90;97.30;;;;;;5030971;28;20686;-65
2022/12/20 07:59:10;;;;;;;92.87;40.47;;;7.90;97.20;;;;;;5034989;28;20196;-65
2022/12/20 08:01:38;;;;;;;86.93;39.87;;;8.00;97.20;;;;;;5036699;28;20642;-66
2022/12/20 08:04:13;;;;;;;91.70;39.63;;;8.00;97.20;;;;;;5036359;28;20199;-65
2022/12/20 08:06:41;;;;;;;90.53;39.53;;;8.00;97.10;;;;;;5034986;28;20632;-65
2022/12/20 08:09:14;;;;;;;93.17;38.80;;;8.00;97.00;;;;;;5037866;28;20251;-65
2022/12/20 08:11:43;;;;;;;84.80;36.90;;;8.10;97.00;;;;;;5037918;28;20254;-65
2022/12/20 08:14:11;;;;;;;86.77;37.10;;;8.10;96.90;;;;;;5031945;28;20199;-65
2022/12/20 08:16:38;;;;;;;89.70;38.23;;;8.10;96.90;;;;;;5033457;28;20287;-65
2022/12/20 08:19:05;;;;;;;101.57;40.20;;;8.10;96.80;;;;;;5035537;28;20227;-65
2022/12/20 08:21:32;;;;;;;84.77;38.03;;;8.20;96.70;;;;;;5039791;28;20200;-66
2022/12/20 08:23:59;;;;;;;91.07;37.40;;;8.20;96.70;;;;;;5036348;28;20195;-65
2022/12/20 08:26:27;;;;;;;83.07;38.67;;;8.20;96.70;;;;;;5033987;28;20278;-65
2022/12/20 08:28:55;;;;;;;85.67;38.17;;;8.30;96.70;;;;;;5033932;28;20211;-65
2022/12/20 08:31:22;;;;;;;87.20;38.63;;;8.30;96.60;;;;;;5035795;28;20560;-65
2022/12/20 08:33:54;;;;;;;92.87;39.50;;;8.30;96.60;;;;;;5037270;28;20525;-65
2022/12/20 08:36:21;;;;;;;81.07;38.17;;;8.30;96.50;;;;;;5034782;28;20240;-65
2022/12/20 08:38:48;;;;;;;85.23;39.73;;;8.30;96.50;;;;;;5033715;28;20200;-65
2022/12/20 08:41:15;;;;;;;79.80;38.93;;;8.30;96.40;;;;;;5033486;28;20194;-65
2022/12/20 08:43:42;;;;;;;89.83;39.00;;;8.30;96.40;;;;;;5033615;28;20193;-65
2022/12/20 08:46:13;;;;;;;91.03;39.43;;;8.40;96.40;;;;;;5034919;28;20204;-65
2022/12/20 08:48:40;;;;;;;92.90;41.40;;;8.40;96.40;;;;;;5033863;28;20298;-65
2022/12/20 08:51:09;;;;;;;94.00;39.30;;;8.40;96.40;;;;;;5038029;28;20305;-65
2022/12/20 08:53:37;;;;;;;90.50;38.70;;;8.40;96.30;;;;;;5037891;28;20496;-65
2022/12/20 08:56:16;;;;;;;95.40;39.40;;;8.40;96.30;;;;;;5038392;28;20215;-65
2022/12/20 08:58:43;;;;;;;96.37;39.40;;;8.50;96.30;;;;;;5037696;28;20199;-65
2022/12/20 09:01:13;;;;;;;89.37;41.63;;;8.50;96.30;;;;;;5038510;28;20208;-65
2022/12/20 09:03:41;;;;;;;94.10;40.77;;;8.50;96.30;;;;;;5038917;28;20279;-65
2022/12/20 09:06:10;;;;;;;94.27;41.47;;;8.50;96.20;;;;;;5036111;28;20205;-65
2022/12/20 09:08:39;;;;;;;94.53;41.27;;;8.50;96.20;;;;;;5040101;28;20672;-65
2022/12/20 09:11:11;;;;;;;87.00;39.57;;;8.60;96.20;;;;;;5040095;28;20237;-65
2022/12/20 09:13:39;;;;;;;100.30;43.47;;;8.60;96.20;;;;;;5038120;28;20199;-65
2022/12/20 09:16:14;;;;;;;100.97;42.53;;;8.60;96.20;;;;;;5037243;28;20273;-65
2022/12/20 09:18:42;;;;;;;99.83;43.87;;;8.70;96.20;;;;;;5041521;28;20231;-65
2022/12/20 09:21:10;;;;;;;95.43;40.43;;;8.70;96.10;;;;;;5037123;28;20221;-65
2022/12/20 09:23:38;;;;;;;92.60;42.63;;;8.70;96.00;;;;;;5040054;28;20275;-65
2022/12/20 09:26:09;;;;;;;103.37;45.43;;;8.80;95.90;;;;;;5033728;28;20204;-66
2022/12/20 09:28:36;;;;;;;93.60;44.20;;;8.80;95.90;;;;;;5037985;28;20205;-65
2022/12/20 09:31:06;;;;;;;99.00;44.37;;;8.80;95.90;;;;;;5038488;28;20552;-66
2022/12/20 09:33:34;;;;;;;105.70;45.77;;;8.90;95.80;;;;;;5039663;28;20211;-65
2022/12/20 09:36:02;;;;;;;95.30;43.80;;;8.90;95.70;;;;;;5036615;28;20218;-65
2022/12/20 09:38:31;;;;;;;94.87;42.37;;;8.90;95.70;;;;;;5036470;28;20199;-65
2022/12/20 09:41:04;;;;;;;90.33;43.23;;;9.00;95.70;;;;;;5038867;28;20543;-65
2022/12/20 09:43:32;;;;;;;89.83;43.20;;;9.00;95.60;;;;;;5035445;28;20521;-65
2022/12/20 09:46:02;;;;;;;90.43;43.33;;;9.10;95.60;;;;;;5038337;28;20273;-65
2022/12/20 09:48:36;;;;;;;88.30;42.00;;;9.10;95.50;;;;;;5037836;28;20211;-65
2022/12/20 09:51:09;;;;;;;97.00;43.60;;;9.20;95.40;;;;;;5042819;28;20232;-65
2022/12/20 09:54:11;;;;;;;93.17;46.07;;;9.30;95.40;;;;;;5027812;28;20205;-65
2022/12/20 09:57:06;;;;;;;93.40;43.53;;;9.30;95.20;;;;;;5030596;28;20240;-65
2022/12/20 09:59:36;;;;;;;99.80;45.70;;;9.30;95.10;;;;;;5035673;28;20289;-65
2022/12/20 10:02:14;;;;;;;95.87;46.27;;;9.40;95.00;;;;;;5039829;28;20516;-65
2022/12/20 10:05:01;;;;;;;101.67;47.20;;;9.40;94.90;;;;;;5037313;28;20208;-65
2022/12/20 10:07:31;;;;;;;89.97;46.10;;;9.40;94.80;;;;;;5035831;28;20230;-66
2022/12/20 10:10:16;;;;;;;94.33;46.40;;;9.40;94.80;;;;;;5039243;28;20211;-65
2022/12/20 10:13:24;;;;;;;103.70;48.93;;;9.40;94.70;;;;;;5036516;28;20314;-65
2022/12/20 10:15:59;;;;;;;102.40;47.17;;;9.50;94.70;;;;;;5048178;28;20324;-65
2022/12/20 10:18:45;;;;;;;98.30;46.60;;;9.50;94.70;;;;;;5036217;28;20199;-65
2022/12/20 10:21:18;;;;;;;98.90;48.37;;;9.60;94.50;;;;;;5039241;28;20214;-65
2022/12/20 10:24:00;;;;;;;105.50;49.80;;;9.60;94.40;;;;;;5034455;28;20202;-65
2022/12/20 10:26:28;;;;;;;94.43;46.40;;;9.70;94.20;;;;;;5033624;28;20199;-65
2022/12/20 10:28:55;;;;;;;89.57;45.63;;;9.70;94.10;;;;;;5037319;28;20211;-65
2022/12/20 10:31:24;;;;;;;88.10;48.27;;;9.70;93.90;;;;;;5035892;28;20200;-65
2022/12/20 10:33:51;;;;;;;88.40;47.00;;;9.80;93.90;;;;;;5035873;28;20687;-65
2022/12/20 10:36:21;;;;;;;86.93;45.47;;;9.80;93.90;;;;;;5026448;28;20615;-65
2022/12/20 10:38:51;;;;;;;100.20;48.80;;;9.90;93.80;;;;;;5037588;28;20202;-65
2022/12/20 10:41:47;;;;;;;92.70;48.63;;;9.90;93.70;;;;;;5034984;28;20215;-65
2022/12/20 10:44:14;;;;;;;86.03;50.23;;;10.00;93.60;;;;;;5037126;28;20188;-65
2022/12/20 10:46:53;;;;;;;83.70;45.80;;;10.10;93.50;;;;;;5033015;28;20243;-66
2022/12/20 10:49:30;;;;;;;86.53;47.70;;;10.10;93.30;;;;;;5037565;28;20301;-65
2022/12/20 10:52:07;;;;;;;87.83;47.57;;;10.10;93.10;;;;;;5040230;28;20599;-65
2022/12/20 10:54:37;;;;;;;90.33;45.43;;;10.20;92.90;;;;;;5033029;28;20288;-65
2022/12/20 10:57:21;;;;;;;81.80;46.53;;;10.20;92.70;;;;;;5021502;28;20587;-65
2022/12/20 10:59:50;;;;;;;85.50;45.63;;;10.20;92.50;;;;;;5035931;28;20236;-65
2022/12/20 11:02:22;;;;;;;80.77;44.63;;;10.20;92.20;;;;;;5035756;28;20198;-65
2022/12/20 11:05:22;;;;;;;74.43;43.03;;;10.20;92.10;;;;;;5035644;28;20193;-65
2022/12/20 11:07:53;;;;;;;82.60;45.70;;;10.20;92.00;;;;;;5033129;28;20219;-66
2022/12/20 11:10:40;;;;;;;81.73;45.03;;;10.20;92.00;;;;;;5031919;28;20204;-65
2022/12/20 11:13:34;;;;;;;82.30;45.70;;;10.20;92.00;;;;;;5033356;28;20279;-65
2022/12/20 11:16:01;;;;;;;73.70;43.57;;;10.20;92.00;;;;;;5034805;28;20236;-65
2022/12/20 11:18:37;;;;;;;70.17;44.10;;;10.20;92.10;;;;;;5036780;28;20196;-65
2022/12/20 11:21:14;;;;;;;71.93;43.77;;;10.20;92.10;;;;;;5034476;28;20503;-65
2022/12/20 11:24:09;;;;;;;75.97;43.23;;;10.20;92.00;;;;;;5037499;28;20559;-65
2022/12/20 11:27:24;;;;;;;76.47;42.83;;;10.10;92.00;;;;;;5031522;28;20202;-65
2022/12/20 11:29:54;;;;;;;73.83;42.87;;;10.10;91.90;;;;;;5035740;28;20240;-65
2022/12/20 11:32:25;;;;;;;77.73;46.83;;;10.10;91.80;;;;;;5034662;28;20232;-65
2022/12/20 11:35:07;;;;;;;82.33;45.77;;;10.10;91.90;;;;;;5035908;28;20201;-65
2022/12/20 11:38:13;;;;;;;80.90;46.07;;;10.10;91.90;;;;;;5031489;28;20673;-65
2022/12/20 11:41:12;;;;;;;83.90;46.13;;;10.10;92.00;;;;;;5030821;28;20215;-66
2022/12/20 11:43:48;;;;;;;76.83;43.90;;;10.10;91.90;;;;;;5035493;28;20285;-65
2022/12/20 11:46:44;;;;;;;74.53;43.33;;;10.10;91.80;;;;;;5033920;28;20207;-65
2022/12/20 11:49:20;;;;;;;76.27;46.10;;;10.10;91.70;;;;;;5019252;28;20296;-65
2022/12/20 11:52:09;;;;;;;77.20;47.17;;;10.10;91.70;;;;;;5037803;28;20202;-65
2022/12/20 11:54:48;;;;;;;80.43;44.57;;;10.10;91.70;;;;;;5034810;28;20199;-65
2022/12/20 11:57:23;;;;;;;81.43;46.53;;;10.10;91.80;;;;;;5034016;28;20300;-65
2022/12/20 11:59:56;;;;;;;82.23;47.23;;;10.10;91.80;;;;;;5035227;28;20215;-65
2022/12/20 12:02:56;;;;;;;76.03;43.50;;;10.10;91.70;;;;;;5036793;28;20286;-65
2022/12/20 12:05:39;;;;;;;83.10;45.27;;;10.10;91.60;;;;;;5034577;28;20649;-65
2022/12/20 12:08:16;;;;;;;81.60;47.40;;;10.10;91.80;;;;;;5033802;28;20321;-65
2022/12/20 12:10:56;;;;;;;83.27;47.67;;;10.10;91.40;;;;;;5034374;28;20201;-65
2022/12/20 12:13:27;;;;;;;76.27;46.57;;;10.10;91.40;;;;;;5033797;28;20198;-65
2022/12/20 12:16:18;;;;;;;84.70;49.40;;;10.10;91.40;;;;;;5031101;28;20298;-65
2022/12/20 12:18:46;;;;;;;83.00;46.63;;;10.10;91.40;;;;;;5033755;28;20516;-65
2022/12/20 12:21:21;;;;;;;81.07;46.77;;;10.10;91.40;;;;;;5034795;28;20209;-65
2022/12/20 12:24:00;;;;;;;82.50;48.73;;;10.10;91.70;;;;;;5034266;28;20205;-65
2022/12/20 12:26:29;;;;;;;80.30;49.23;;;10.10;91.40;;;;;;5032904;28;20250;-65
2022/12/20 12:29:00;;;;;;;82.97;49.70;;;10.10;91.40;;;;;;5037096;28;20244;-65
2022/12/20 12:32:04;;;;;;;84.53;47.50;;;10.10;91.50;;;;;;5041354;28;20198;-65
2022/12/20 12:34:57;;;;;;;83.13;47.70;;;10.20;91.50;;;;;;5036815;28;20201;-65
2022/12/20 12:37:39;;;;;;;85.80;46.40;;;10.20;91.50;;;;;;5036811;28;20225;-65
2022/12/20 12:40:24;;;;;;;83.10;47.93;;;10.20;91.20;;;;;;5037190;28;20204;-65
2022/12/20 12:43:03;;;;;;;87.20;49.20;;;10.20;90.70;;;;;;5038637;28;20199;-65
2022/12/20 12:45:56;;;;;;;79.93;47.77;;;10.10;90.80;;;;;;5036679;28;20192;-65
2022/12/20 12:48:48;;;;;;;76.63;47.17;;;10.10;91.00;;;;;;5038862;28;20255;-65
2022/12/20 12:51:30;;;;;;;80.27;46.93;;;10.20;91.00;;;;;;5041580;28;20705;-64
2022/12/20 12:54:03;;;;;;;78.40;46.97;;;10.20;90.90;;;;;;5036052;28;20202;-65
2022/12/20 12:56:38;;;;;;;83.33;48.60;;;10.20;90.40;;;;;;5037392;28;20224;-65
2022/12/20 12:59:32;;;;;;;80.07;47.83;;;10.20;90.40;;;;;;5036844;28;20195;-65
2022/12/20 13:02:04;;;;;;;84.60;47.30;;;10.20;90.50;;;;;;5039442;28;20652;-65
2022/12/20 13:05:09;;;;;;;78.10;46.63;;;10.20;90.60;;;;;;5037611;28;20235;-65
2022/12/20 13:07:36;;;;;;;79.43;46.80;;;10.20;90.50;;;;;;5035638;28;20233;-65
2022/12/20 13:10:09;;;;;;;76.43;46.87;;;10.20;90.50;;;;;;5034234;28;20203;-65
2022/12/20 13:12:36;;;;;;;80.63;49.37;;;10.20;90.60;;;;;;5035045;28;20260;-65